sensor_id;sensor_type;location;lat;lon;timestamp;temperature;humidity
20594;DHT22;10455;48.732;10.266;2024-01-27T00:00:32;-0.50;99.90
20594;DHT22;10455;48.732;10.266;2024-01-27T00:05:34;-0.50;99.90
20594;DHT22;10455;48.732;10.266;2024-01-27T00:10:35;-0.40;99.90
20594;DHT22;10455;48.732;10.266;2024-01-27T00:15:39;-0.20;99.90
20594;DHT22;10455;48.732;10.266;2024-01-27T00:20:41;-0.20;99.90
20594;DHT22;10455;48.732;10.266;2024-01-27T00:25:43;-0.20;99.90
20594;DHT22;10455;48.732;10.266;2024-01-27T00:30:47;-0.30;99.90
20594;DHT22;10455;48.732;10.266;2024-01-27T00:35:50;-0.40;99.90
20594;DHT22;10455;48.732;10.266;2024-01-27T00:40:52;-0.40;99.90
20594;DHT22;10455;48.732;10.266;2024-01-27T00:45:55;-0.20;99.90
20594;DHT22;10455;48.732;10.266;2024-01-27T00:50:57;0.10;99.90
20594;DHT22;10455;48.732;10.266;2024-01-27T00:55:59;0.00;99.90
20594;DHT22;10455;48.732;10.266;2024-01-27T01:01:03;-0.20;99.90
20594;DHT22;10455;48.732;10.266;2024-01-27T01:06:05;-0.30;99.90
20594;DHT22;10455;48.732;10.266;2024-01-27T01:11:07;-0.60;99.90
20594;DHT22;10455;48.732;10.266;2024-01-27T01:16:11;-0.70;99.90
20594;DHT22;10455;48.732;10.266;2024-01-27T01:21:14;-0.80;99.90
20594;DHT22;10455;48.732;10.266;2024-01-27T01:26:16;-0.90;99.90
20594;DHT22;10455;48.732;10.266;2024-01-27T01:31:19;-0.90;99.90
20594;DHT22;10455;48.732;10.266;2024-01-27T01:36:21;-0.90;99.90
20594;DHT22;10455;48.732;10.266;2024-01-27T01:41:23;-0.70;99.90
20594;DHT22;10455;48.732;10.266;2024-01-27T01:46:26;-0.70;99.90
20594;DHT22;10455;48.732;10.266;2024-01-27T01:51:28;-0.80;99.90
20594;DHT22;10455;48.732;10.266;2024-01-27T01:56:30;-0.80;99.90
20594;DHT22;10455;48.732;10.266;2024-01-27T02:01:33;-0.80;99.90
20594;DHT22;10455;48.732;10.266;2024-01-27T02:06:35;-0.90;99.90
20594;DHT22;10455;48.732;10.266;2024-01-27T02:11:37;-0.90;99.90
20594;DHT22;10455;48.732;10.266;2024-01-27T02:16:40;-0.80;99.90
20594;DHT22;10455;48.732;10.266;2024-01-27T02:21:42;-0.80;99.90
20594;DHT22;10455;48.732;10.266;2024-01-27T02:26:45;-0.80;99.90
20594;DHT22;10455;48.732;10.266;2024-01-27T02:31:47;-0.80;99.90
20594;DHT22;10455;48.732;10.266;2024-01-27T02:36:49;-0.80;99.90
20594;DHT22;10455;48.732;10.266;2024-01-27T02:41:52;-0.90;99.90
20594;DHT22;10455;48.732;10.266;2024-01-27T02:46:54;-0.80;99.90
20594;DHT22;10455;48.732;10.266;2024-01-27T02:51:56;-0.90;99.90
20594;DHT22;10455;48.732;10.266;2024-01-27T02:56:59;-1.00;99.90
20594;DHT22;10455;48.732;10.266;2024-01-27T03:02:01;-0.90;99.90
20594;DHT22;10455;48.732;10.266;2024-01-27T03:07:03;-0.80;99.90
20594;DHT22;10455;48.732;10.266;2024-01-27T03:12:07;-0.80;99.90
20594;DHT22;10455;48.732;10.266;2024-01-27T03:17:09;-0.80;99.90
20594;DHT22;10455;48.732;10.266;2024-01-27T03:22:11;-0.90;99.90
20594;DHT22;10455;48.732;10.266;2024-01-27T03:27:14;-1.00;99.90
20594;DHT22;10455;48.732;10.266;2024-01-27T03:32:16;-1.20;99.90
20594;DHT22;10455;48.732;10.266;2024-01-27T03:37:18;-1.20;99.90
20594;DHT22;10455;48.732;10.266;2024-01-27T03:42:24;-1.10;99.90
20594;DHT22;10455;48.732;10.266;2024-01-27T03:47:26;-0.90;99.90
20594;DHT22;10455;48.732;10.266;2024-01-27T03:52:28;-0.90;99.90
20594;DHT22;10455;48.732;10.266;2024-01-27T03:57:31;-0.90;99.90
20594;DHT22;10455;48.732;10.266;2024-01-27T04:02:33;-0.90;99.90
20594;DHT22;10455;48.732;10.266;2024-01-27T04:07:35;-0.80;99.90
20594;DHT22;10455;48.732;10.266;2024-01-27T04:12:38;-0.70;99.90
20594;DHT22;10455;48.732;10.266;2024-01-27T04:17:40;-0.50;99.90
20594;DHT22;10455;48.732;10.266;2024-01-27T04:22:42;-0.70;99.90
20594;DHT22;10455;48.732;10.266;2024-01-27T04:27:45;-0.80;99.90
20594;DHT22;10455;48.732;10.266;2024-01-27T04:32:47;-0.90;99.90
20594;DHT22;10455;48.732;10.266;2024-01-27T04:37:52;-0.80;99.90
20594;DHT22;10455;48.732;10.266;2024-01-27T04:42:55;-0.70;99.90
20594;DHT22;10455;48.732;10.266;2024-01-27T04:47:57;-0.70;99.90
20594;DHT22;10455;48.732;10.266;2024-01-27T04:53:01;-0.90;99.90
20594;DHT22;10455;48.732;10.266;2024-01-27T04:58:06;-1.00;99.90
20594;DHT22;10455;48.732;10.266;2024-01-27T05:03:08;-0.90;99.90
20594;DHT22;10455;48.732;10.266;2024-01-27T05:08:14;-0.90;99.90
20594;DHT22;10455;48.732;10.266;2024-01-27T05:13:17;-0.90;99.90
20594;DHT22;10455;48.732;10.266;2024-01-27T05:18:19;-0.90;99.90
20594;DHT22;10455;48.732;10.266;2024-01-27T05:23:21;-0.90;99.90
20594;DHT22;10455;48.732;10.266;2024-01-27T05:28:25;-1.10;99.90
20594;DHT22;10455;48.732;10.266;2024-01-27T05:33:27;-1.10;99.90
20594;DHT22;10455;48.732;10.266;2024-01-27T05:38:29;-1.10;99.90
20594;DHT22;10455;48.732;10.266;2024-01-27T05:43:33;-1.20;99.90
20594;DHT22;10455;48.732;10.266;2024-01-27T05:48:35;-1.20;99.90
20594;DHT22;10455;48.732;10.266;2024-01-27T05:53:37;-1.30;99.90
20594;DHT22;10455;48.732;10.266;2024-01-27T05:58:40;-1.30;99.90
20594;DHT22;10455;48.732;10.266;2024-01-27T06:03:43;-1.20;99.90
20594;DHT22;10455;48.732;10.266;2024-01-27T06:08:45;-1.10;99.90
20594;DHT22;10455;48.732;10.266;2024-01-27T06:13:48;-1.10;99.90
20594;DHT22;10455;48.732;10.266;2024-01-27T06:18:50;-1.10;99.90
20594;DHT22;10455;48.732;10.266;2024-01-27T06:23:52;-1.10;99.90
20594;DHT22;10455;48.732;10.266;2024-01-27T06:28:55;-1.00;99.90
20594;DHT22;10455;48.732;10.266;2024-01-27T06:33:57;-0.80;99.90
20594;DHT22;10455;48.732;10.266;2024-01-27T06:38:59;-0.70;99.90
20594;DHT22;10455;48.732;10.266;2024-01-27T06:44:02;-0.60;99.90
20594;DHT22;10455;48.732;10.266;2024-01-27T06:49:04;-0.50;99.90
20594;DHT22;10455;48.732;10.266;2024-01-27T06:54:06;-0.50;99.90
20594;DHT22;10455;48.732;10.266;2024-01-27T06:59:10;-0.60;99.90
20594;DHT22;10455;48.732;10.266;2024-01-27T07:04:12;-0.70;99.90
20594;DHT22;10455;48.732;10.266;2024-01-27T07:09:14;-0.70;99.90
20594;DHT22;10455;48.732;10.266;2024-01-27T07:14:17;-0.70;99.90
20594;DHT22;10455;48.732;10.266;2024-01-27T07:19:19;-0.70;99.90
20594;DHT22;10455;48.732;10.266;2024-01-27T07:24:21;-0.60;99.90
20594;DHT22;10455;48.732;10.266;2024-01-27T07:29:24;-0.70;99.90
20594;DHT22;10455;48.732;10.266;2024-01-27T07:34:26;-0.70;99.90
20594;DHT22;10455;48.732;10.266;2024-01-27T07:39:27;-0.90;99.90
20594;DHT22;10455;48.732;10.266;2024-01-27T07:44:31;-0.90;99.90
20594;DHT22;10455;48.732;10.266;2024-01-27T07:49:32;-0.80;99.90
20594;DHT22;10455;48.732;10.266;2024-01-27T07:54:34;-0.70;99.90
20594;DHT22;10455;48.732;10.266;2024-01-27T07:59:40;-0.60;99.90
20594;DHT22;10455;48.732;10.266;2024-01-27T08:04:42;-0.50;99.90
20594;DHT22;10455;48.732;10.266;2024-01-27T08:09:44;-0.30;99.90
20594;DHT22;10455;48.732;10.266;2024-01-27T08:14:47;0.00;99.90
20594;DHT22;10455;48.732;10.266;2024-01-27T08:19:49;0.20;99.90
20594;DHT22;10455;48.732;10.266;2024-01-27T08:24:51;0.30;99.90
20594;DHT22;10455;48.732;10.266;2024-01-27T08:29:55;0.10;99.90
20594;DHT22;10455;48.732;10.266;2024-01-27T08:34:56;0.20;99.90
20594;DHT22;10455;48.732;10.266;2024-01-27T08:39:58;0.20;99.90
20594;DHT22;10455;48.732;10.266;2024-01-27T08:45:02;0.30;99.90
20594;DHT22;10455;48.732;10.266;2024-01-27T08:50:06;0.50;99.90
20594;DHT22;10455;48.732;10.266;2024-01-27T08:55:08;0.70;99.90
20594;DHT22;10455;48.732;10.266;2024-01-27T09:00:13;0.80;99.90
20594;DHT22;10455;48.732;10.266;2024-01-27T09:05:16;1.10;99.90
20594;DHT22;10455;48.732;10.266;2024-01-27T09:10:17;1.40;99.90
20594;DHT22;10455;48.732;10.266;2024-01-27T09:15:21;1.60;99.90
20594;DHT22;10455;48.732;10.266;2024-01-27T09:20:23;1.80;99.90
20594;DHT22;10455;48.732;10.266;2024-01-27T09:25:24;2.00;99.90
20594;DHT22;10455;48.732;10.266;2024-01-27T09:30:28;2.30;99.90
20594;DHT22;10455;48.732;10.266;2024-01-27T09:35:29;3.70;99.90
20594;DHT22;10455;48.732;10.266;2024-01-27T09:40:31;8.80;99.90
20594;DHT22;10455;48.732;10.266;2024-01-27T09:45:36;12.40;99.90
20594;DHT22;10455;48.732;10.266;2024-01-27T09:50:39;14.20;99.90
20594;DHT22;10455;48.732;10.266;2024-01-27T09:55:43;13.40;99.90
20594;DHT22;10455;48.732;10.266;2024-01-27T10:00:47;16.30;99.90
20594;DHT22;10455;48.732;10.266;2024-01-27T10:05:50;16.30;99.90
20594;DHT22;10455;48.732;10.266;2024-01-27T10:10:55;15.80;99.90
20594;DHT22;10455;48.732;10.266;2024-01-27T10:16:02;15.60;99.90
20594;DHT22;10455;48.732;10.266;2024-01-27T10:21:13;18.00;99.90
20594;DHT22;10455;48.732;10.266;2024-01-27T10:26:15;17.70;99.90
20594;DHT22;10455;48.732;10.266;2024-01-27T10:31:18;18.10;99.90
20594;DHT22;10455;48.732;10.266;2024-01-27T10:36:24;17.20;98.00
20594;DHT22;10455;48.732;10.266;2024-01-27T10:41:26;16.30;98.00
20594;DHT22;10455;48.732;10.266;2024-01-27T10:46:30;16.10;99.90
20594;DHT22;10455;48.732;10.266;2024-01-27T10:51:33;15.00;99.90
20594;DHT22;10455;48.732;10.266;2024-01-27T10:56:37;13.60;99.90
20594;DHT22;10455;48.732;10.266;2024-01-27T11:01:42;13.70;99.90
20594;DHT22;10455;48.732;10.266;2024-01-27T11:06:44;14.40;99.90
20594;DHT22;10455;48.732;10.266;2024-01-27T11:11:47;14.90;99.90
20594;DHT22;10455;48.732;10.266;2024-01-27T11:16:55;14.70;99.90
20594;DHT22;10455;48.732;10.266;2024-01-27T11:22:01;14.20;97.90
20594;DHT22;10455;48.732;10.266;2024-01-27T11:27:04;13.60;97.50
20594;DHT22;10455;48.732;10.266;2024-01-27T11:32:08;12.10;98.50
20594;DHT22;10455;48.732;10.266;2024-01-27T11:37:12;12.90;98.50
20594;DHT22;10455;48.732;10.266;2024-01-27T11:42:14;12.90;99.90
20594;DHT22;10455;48.732;10.266;2024-01-27T11:47:18;11.50;98.80
20594;DHT22;10455;48.732;10.266;2024-01-27T11:52:21;9.40;99.90
20594;DHT22;10455;48.732;10.266;2024-01-27T11:57:23;10.50;99.90
20594;DHT22;10455;48.732;10.266;2024-01-27T12:02:27;11.50;97.80
20594;DHT22;10455;48.732;10.266;2024-01-27T12:07:29;11.70;99.20
20594;DHT22;10455;48.732;10.266;2024-01-27T12:12:31;12.70;99.90
20594;DHT22;10455;48.732;10.266;2024-01-27T12:17:35;12.90;94.30
20594;DHT22;10455;48.732;10.266;2024-01-27T12:22:37;12.40;95.60
20594;DHT22;10455;48.732;10.266;2024-01-27T12:27:39;11.50;95.10
20594;DHT22;10455;48.732;10.266;2024-01-27T12:32:42;12.00;95.50
20594;DHT22;10455;48.732;10.266;2024-01-27T12:37:44;13.30;93.50
20594;DHT22;10455;48.732;10.266;2024-01-27T12:42:46;11.70;95.40
20594;DHT22;10455;48.732;10.266;2024-01-27T12:47:49;9.80;99.90
20594;DHT22;10455;48.732;10.266;2024-01-27T12:52:51;9.40;99.90
20594;DHT22;10455;48.732;10.266;2024-01-27T12:57:54;8.80;99.90
20594;DHT22;10455;48.732;10.266;2024-01-27T13:02:59;7.70;99.90
20594;DHT22;10455;48.732;10.266;2024-01-27T13:08:01;7.40;99.90
20594;DHT22;10455;48.732;10.266;2024-01-27T13:13:04;7.80;99.90
20594;DHT22;10455;48.732;10.266;2024-01-27T13:18:08;8.40;99.90
20594;DHT22;10455;48.732;10.266;2024-01-27T13:23:10;9.30;99.90
20594;DHT22;10455;48.732;10.266;2024-01-27T13:28:12;9.30;99.90
20594;DHT22;10455;48.732;10.266;2024-01-27T13:33:16;9.50;99.90
20594;DHT22;10455;48.732;10.266;2024-01-27T13:38:18;10.50;99.90
20594;DHT22;10455;48.732;10.266;2024-01-27T13:43:24;10.50;99.90
20594;DHT22;10455;48.732;10.266;2024-01-27T13:48:27;11.30;99.90
20594;DHT22;10455;48.732;10.266;2024-01-27T13:53:29;11.40;99.90
20594;DHT22;10455;48.732;10.266;2024-01-27T13:58:32;11.80;99.90
20594;DHT22;10455;48.732;10.266;2024-01-27T14:03:35;10.90;99.90
20594;DHT22;10455;48.732;10.266;2024-01-27T14:08:38;10.10;99.90
20594;DHT22;10455;48.732;10.266;2024-01-27T14:13:40;9.40;99.90
20594;DHT22;10455;48.732;10.266;2024-01-27T14:18:45;8.90;99.90
20594;DHT22;10455;48.732;10.266;2024-01-27T14:23:47;10.40;99.90
20594;DHT22;10455;48.732;10.266;2024-01-27T14:28:49;11.30;99.30
20594;DHT22;10455;48.732;10.266;2024-01-27T14:33:54;12.20;98.20
20594;DHT22;10455;48.732;10.266;2024-01-27T14:38:56;11.30;97.70
20594;DHT22;10455;48.732;10.266;2024-01-27T14:43:58;13.10;97.30
20594;DHT22;10455;48.732;10.266;2024-01-27T14:49:01;13.40;93.90
20594;DHT22;10455;48.732;10.266;2024-01-27T14:54:03;12.40;97.20
20594;DHT22;10455;48.732;10.266;2024-01-27T14:59:06;12.80;96.70
20594;DHT22;10455;48.732;10.266;2024-01-27T15:04:10;12.00;97.70
20594;DHT22;10455;48.732;10.266;2024-01-27T15:09:12;8.50;99.90
20594;DHT22;10455;48.732;10.266;2024-01-27T15:14:16;7.10;99.90
20594;DHT22;10455;48.732;10.266;2024-01-27T15:19:19;5.80;99.90
20594;DHT22;10455;48.732;10.266;2024-01-27T15:24:21;5.00;99.90
20594;DHT22;10455;48.732;10.266;2024-01-27T15:29:23;4.80;99.90
20594;DHT22;10455;48.732;10.266;2024-01-27T15:34:26;4.40;99.90
20594;DHT22;10455;48.732;10.266;2024-01-27T15:39:28;4.20;99.90
20594;DHT22;10455;48.732;10.266;2024-01-27T15:44:30;4.00;99.90
20594;DHT22;10455;48.732;10.266;2024-01-27T15:49:33;3.70;99.90
20594;DHT22;10455;48.732;10.266;2024-01-27T15:54:35;3.50;99.90
20594;DHT22;10455;48.732;10.266;2024-01-27T15:59:39;3.10;99.90
20594;DHT22;10455;48.732;10.266;2024-01-27T16:04:43;2.90;99.90
20594;DHT22;10455;48.732;10.266;2024-01-27T16:09:46;2.50;99.90
20594;DHT22;10455;48.732;10.266;2024-01-27T16:14:48;2.20;99.90
20594;DHT22;10455;48.732;10.266;2024-01-27T16:19:51;1.70;99.90
20594;DHT22;10455;48.732;10.266;2024-01-27T16:24:54;1.30;99.90
20594;DHT22;10455;48.732;10.266;2024-01-27T16:29:56;0.90;99.90
20594;DHT22;10455;48.732;10.266;2024-01-27T16:34:59;0.60;99.90
20594;DHT22;10455;48.732;10.266;2024-01-27T16:40:01;0.40;99.90
20594;DHT22;10455;48.732;10.266;2024-01-27T16:45:05;0.20;99.90
20594;DHT22;10455;48.732;10.266;2024-01-27T16:50:09;0.00;99.90
20594;DHT22;10455;48.732;10.266;2024-01-27T16:55:11;-0.20;99.90
20594;DHT22;10455;48.732;10.266;2024-01-27T17:00:14;-0.30;99.90
20594;DHT22;10455;48.732;10.266;2024-01-27T17:05:17;0.00;99.90
20594;DHT22;10455;48.732;10.266;2024-01-27T17:10:19;-0.20;99.90
20594;DHT22;10455;48.732;10.266;2024-01-27T17:15:21;-0.40;99.90
20594;DHT22;10455;48.732;10.266;2024-01-27T17:20:24;-0.50;99.90
20594;DHT22;10455;48.732;10.266;2024-01-27T17:25:26;-0.50;99.90
20594;DHT22;10455;48.732;10.266;2024-01-27T17:30:28;-0.60;99.90
20594;DHT22;10455;48.732;10.266;2024-01-27T17:35:31;-0.80;99.90
20594;DHT22;10455;48.732;10.266;2024-01-27T17:40:33;-0.60;99.90
20594;DHT22;10455;48.732;10.266;2024-01-27T17:45:35;-0.70;99.90
20594;DHT22;10455;48.732;10.266;2024-01-27T17:50:39;-0.80;99.90
20594;DHT22;10455;48.732;10.266;2024-01-27T17:55:40;-0.90;99.90
20594;DHT22;10455;48.732;10.266;2024-01-27T18:00:42;-1.10;99.90
20594;DHT22;10455;48.732;10.266;2024-01-27T18:05:46;-1.30;99.90
20594;DHT22;10455;48.732;10.266;2024-01-27T18:10:50;-1.40;99.90
20594;DHT22;10455;48.732;10.266;2024-01-27T18:15:52;-1.40;99.90
20594;DHT22;10455;48.732;10.266;2024-01-27T18:20:56;-1.40;99.90
20594;DHT22;10455;48.732;10.266;2024-01-27T18:25:58;-1.60;99.90
20594;DHT22;10455;48.732;10.266;2024-01-27T18:31:00;-1.60;99.90
20594;DHT22;10455;48.732;10.266;2024-01-27T18:36:03;-1.70;99.90
20594;DHT22;10455;48.732;10.266;2024-01-27T18:41:05;-1.90;99.90
20594;DHT22;10455;48.732;10.266;2024-01-27T18:46:07;-1.80;99.90
20594;DHT22;10455;48.732;10.266;2024-01-27T18:51:11;-1.80;99.90
20594;DHT22;10455;48.732;10.266;2024-01-27T18:56:12;-1.80;99.90
20594;DHT22;10455;48.732;10.266;2024-01-27T19:01:14;-1.80;99.90
20594;DHT22;10455;48.732;10.266;2024-01-27T19:06:18;-1.90;99.90
20594;DHT22;10455;48.732;10.266;2024-01-27T19:11:19;-2.00;99.90
20594;DHT22;10455;48.732;10.266;2024-01-27T19:16:21;-2.00;99.90
20594;DHT22;10455;48.732;10.266;2024-01-27T19:21:24;-2.00;99.90
20594;DHT22;10455;48.732;10.266;2024-01-27T19:26:26;-2.00;99.90
20594;DHT22;10455;48.732;10.266;2024-01-27T19:31:28;-2.10;99.90
20594;DHT22;10455;48.732;10.266;2024-01-27T19:36:33;-2.20;99.90
20594;DHT22;10455;48.732;10.266;2024-01-27T19:41:35;-2.10;99.90
20594;DHT22;10455;48.732;10.266;2024-01-27T19:46:37;-2.20;99.90
20594;DHT22;10455;48.732;10.266;2024-01-27T19:51:43;-2.30;99.90
20594;DHT22;10455;48.732;10.266;2024-01-27T19:56:45;-2.30;99.90
20594;DHT22;10455;48.732;10.266;2024-01-27T20:01:47;-2.40;99.90
20594;DHT22;10455;48.732;10.266;2024-01-27T20:06:50;-2.60;99.90
20594;DHT22;10455;48.732;10.266;2024-01-27T20:11:56;-2.60;99.90
20594;DHT22;10455;48.732;10.266;2024-01-27T20:16:58;-2.60;99.90
20594;DHT22;10455;48.732;10.266;2024-01-27T20:22:02;-2.50;99.90
20594;DHT22;10455;48.732;10.266;2024-01-27T20:27:04;-2.50;99.90
20594;DHT22;10455;48.732;10.266;2024-01-27T20:32:06;-2.60;99.90
20594;DHT22;10455;48.732;10.266;2024-01-27T20:37:09;-2.60;99.90
20594;DHT22;10455;48.732;10.266;2024-01-27T20:42:11;-2.60;99.90
20594;DHT22;10455;48.732;10.266;2024-01-27T20:47:14;-2.80;99.90
20594;DHT22;10455;48.732;10.266;2024-01-27T20:52:17;-2.80;99.90
20594;DHT22;10455;48.732;10.266;2024-01-27T20:57:19;-2.80;99.90
20594;DHT22;10455;48.732;10.266;2024-01-27T21:02:22;-2.70;99.90
20594;DHT22;10455;48.732;10.266;2024-01-27T21:07:26;-2.70;99.90
20594;DHT22;10455;48.732;10.266;2024-01-27T21:12:28;-2.80;99.90
20594;DHT22;10455;48.732;10.266;2024-01-27T21:17:30;-2.80;99.90
20594;DHT22;10455;48.732;10.266;2024-01-27T21:22:33;-2.90;99.90
20594;DHT22;10455;48.732;10.266;2024-01-27T21:27:35;-2.80;99.90
20594;DHT22;10455;48.732;10.266;2024-01-27T21:32:37;-2.80;99.90
20594;DHT22;10455;48.732;10.266;2024-01-27T21:37:40;-2.80;99.90
20594;DHT22;10455;48.732;10.266;2024-01-27T21:42:42;-2.90;99.90
20594;DHT22;10455;48.732;10.266;2024-01-27T21:47:44;-3.00;99.90
20594;DHT22;10455;48.732;10.266;2024-01-27T21:52:49;-2.90;99.90
20594;DHT22;10455;48.732;10.266;2024-01-27T21:57:51;-3.00;99.90
20594;DHT22;10455;48.732;10.266;2024-01-27T22:02:53;-2.90;99.90
20594;DHT22;10455;48.732;10.266;2024-01-27T22:07:57;-2.80;99.90
20594;DHT22;10455;48.732;10.266;2024-01-27T22:12:59;-2.90;99.90
20594;DHT22;10455;48.732;10.266;2024-01-27T22:18:01;-2.90;99.90
20594;DHT22;10455;48.732;10.266;2024-01-27T22:23:04;-2.80;99.90
20594;DHT22;10455;48.732;10.266;2024-01-27T22:33:16;-3.00;99.90
20594;DHT22;10455;48.732;10.266;2024-01-27T22:38:21;-3.10;99.90
20594;DHT22;10455;48.732;10.266;2024-01-27T22:43:23;-3.20;99.90
20594;DHT22;10455;48.732;10.266;2024-01-27T22:48:25;-3.10;99.90
20594;DHT22;10455;48.732;10.266;2024-01-27T22:53:28;-3.00;99.90
20594;DHT22;10455;48.732;10.266;2024-01-27T22:58:30;-3.10;99.90
20594;DHT22;10455;48.732;10.266;2024-01-27T23:03:32;-3.10;99.90
20594;DHT22;10455;48.732;10.266;2024-01-27T23:08:36;-3.10;99.90
20594;DHT22;10455;48.732;10.266;2024-01-27T23:13:38;-3.10;99.90
20594;DHT22;10455;48.732;10.266;2024-01-27T23:18:40;-3.10;99.90
20594;DHT22;10455;48.732;10.266;2024-01-27T23:23:43;-3.10;99.90
20594;DHT22;10455;48.732;10.266;2024-01-27T23:28:45;-3.10;99.90
20594;DHT22;10455;48.732;10.266;2024-01-27T23:33:47;-3.20;99.90
20594;DHT22;10455;48.732;10.266;2024-01-27T23:38:50;-3.30;99.90
20594;DHT22;10455;48.732;10.266;2024-01-27T23:43:52;-3.40;99.90
20594;DHT22;10455;48.732;10.266;2024-01-27T23:48:54;-3.50;99.90
20594;DHT22;10455;48.732;10.266;2024-01-27T23:53:57;-3.40;99.90
20594;DHT22;10455;48.732;10.266;2024-01-27T23:58:59;-3.40;99.90
